createdAt,value
2023-02-19T00:00:41.337Z,1007.13
2023-02-19T00:01:41.305Z,1007.12
2023-02-19T00:02:41.290Z,1007.14
2023-02-19T00:03:41.379Z,1007.09
2023-02-19T00:04:41.293Z,1007.04
2023-02-19T00:05:41.259Z,1007.10
2023-02-19T00:06:41.237Z,1007.05
2023-02-19T00:07:41.250Z,1007.03
2023-02-19T00:08:41.221Z,1006.98
2023-02-19T00:09:41.215Z,1007.02
2023-02-19T00:10:41.207Z,1006.93
2023-02-19T00:11:41.208Z,1006.84
2023-02-19T00:12:41.195Z,1006.90
2023-02-19T00:13:41.174Z,1006.87
2023-02-19T00:14:41.192Z,1006.89
2023-02-19T00:15:41.207Z,1006.89
2023-02-19T00:16:41.141Z,1006.86
2023-02-19T00:17:41.117Z,1006.77
2023-02-19T00:18:41.100Z,1006.82
2023-02-19T00:19:41.123Z,1006.86
2023-02-19T00:20:41.115Z,1006.89
2023-02-19T00:21:41.088Z,1006.93
2023-02-19T00:22:41.116Z,1006.95
2023-02-19T00:23:41.080Z,1006.94
2023-02-19T00:24:41.045Z,1006.92
2023-02-19T00:25:41.039Z,1006.91
2023-02-19T00:26:41.077Z,1006.86
2023-02-19T00:27:41.103Z,1006.81
2023-02-19T00:28:41.000Z,1006.82
2023-02-19T00:29:41.016Z,1006.76
2023-02-19T00:30:41.001Z,1006.74
2023-02-19T00:31:41.080Z,1006.77
2023-02-19T00:32:41.046Z,1006.78
2023-02-19T00:33:40.990Z,1006.75
2023-02-19T00:34:40.964Z,1006.72
2023-02-19T00:35:41.245Z,1006.70
2023-02-19T00:36:41.070Z,1006.72
2023-02-19T00:37:40.988Z,1006.79
2023-02-19T00:38:40.959Z,1006.76
2023-02-19T00:39:41.539Z,1006.80
2023-02-19T00:40:40.902Z,1006.86
2023-02-19T00:41:41.561Z,1006.83
2023-02-19T00:42:40.836Z,1006.84
2023-02-19T00:43:40.859Z,1006.94
2023-02-19T00:44:40.872Z,1006.86
2023-02-19T00:45:40.828Z,1006.89
2023-02-19T00:46:40.861Z,1006.91
2023-02-19T00:47:40.836Z,1006.78
2023-02-19T00:48:40.807Z,1006.90
2023-02-19T00:49:40.810Z,1006.81
2023-02-19T00:50:40.771Z,1006.78
2023-02-19T00:51:40.998Z,1006.74
2023-02-19T00:52:40.771Z,1006.78
2023-02-19T00:53:40.819Z,1006.75
2023-02-19T00:54:40.737Z,1006.76
2023-02-19T00:55:40.755Z,1006.82
2023-02-19T00:56:40.696Z,1006.82
2023-02-19T00:57:40.773Z,1006.84
2023-02-19T00:58:40.712Z,1006.82
2023-02-19T00:59:40.708Z,1006.85
2023-02-19T01:00:40.672Z,1006.76
2023-02-19T01:01:40.724Z,1006.75
2023-02-19T01:02:40.646Z,1006.77
2023-02-19T01:03:40.677Z,1006.74
2023-02-19T01:04:40.690Z,1006.70
2023-02-19T01:05:40.611Z,1006.72
2023-02-19T01:06:40.596Z,1006.69
2023-02-19T01:07:40.617Z,1006.69
2023-02-19T01:08:40.578Z,1006.78
2023-02-19T01:09:40.572Z,1006.72
2023-02-19T01:10:40.561Z,1006.71
2023-02-19T01:11:40.539Z,1006.78
2023-02-19T01:12:40.532Z,1006.85
2023-02-19T01:13:40.535Z,1006.75
2023-02-19T01:14:40.514Z,1006.76
2023-02-19T01:15:40.494Z,1006.74
2023-02-19T01:16:40.490Z,1006.71
2023-02-19T01:17:40.482Z,1006.72
2023-02-19T01:18:40.474Z,1006.73
2023-02-19T01:19:40.492Z,1006.86
2023-02-19T01:20:40.453Z,1006.71
2023-02-19T01:21:40.463Z,1006.78
2023-02-19T01:22:40.408Z,1006.76
2023-02-19T01:23:40.408Z,1006.83
2023-02-19T01:24:40.379Z,1006.79
2023-02-19T01:25:40.399Z,1006.82
2023-02-19T01:26:40.401Z,1006.79
2023-02-19T01:27:40.403Z,1006.75
2023-02-19T01:28:40.372Z,1006.77
2023-02-19T01:29:40.428Z,1006.75
2023-02-19T01:30:40.353Z,1006.77
2023-02-19T01:31:40.411Z,1006.78
2023-02-19T01:32:40.308Z,1006.71
2023-02-19T01:33:40.318Z,1006.75
2023-02-19T01:34:40.283Z,1006.67
2023-02-19T01:35:40.289Z,1006.71
2023-02-19T01:36:40.303Z,1006.72
2023-02-19T01:37:40.274Z,1006.74
2023-02-19T01:38:40.251Z,1006.67
2023-02-19T01:39:40.298Z,1006.64
2023-02-19T01:40:40.250Z,1006.75
2023-02-19T01:41:40.239Z,1006.71
2023-02-19T01:42:40.253Z,1006.62
2023-02-19T01:43:40.204Z,1006.67
2023-02-19T01:44:40.205Z,1006.64
2023-02-19T01:45:40.223Z,1006.67
2023-02-19T01:46:40.249Z,1006.67
2023-02-19T01:47:40.176Z,1006.69
2023-02-19T01:48:40.194Z,1006.59
2023-02-19T01:49:40.175Z,1006.70
2023-02-19T01:50:40.158Z,1006.62
2023-02-19T01:51:40.126Z,1006.65
2023-02-19T01:52:40.116Z,1006.58
2023-02-19T01:53:40.111Z,1006.64
2023-02-19T01:54:40.077Z,1006.61
2023-02-19T01:55:40.069Z,1006.65
2023-02-19T01:56:40.061Z,1006.63
2023-02-19T01:57:40.060Z,1006.61
2023-02-19T01:58:40.034Z,1006.61
2023-02-19T01:59:40.055Z,1006.62
2023-02-19T02:00:50.153Z,1006.51
2023-02-19T02:01:40.140Z,1006.54
2023-02-19T02:02:40.004Z,1006.50
2023-02-19T02:03:50.031Z,1006.57
2023-02-19T02:04:39.967Z,1006.48
2023-02-19T02:05:40.013Z,1006.46
2023-02-19T02:06:39.953Z,1006.53
2023-02-19T02:07:39.973Z,1006.50
2023-02-19T02:08:39.941Z,1006.52
2023-02-19T02:09:39.948Z,1006.56
2023-02-19T02:10:39.918Z,1006.53
2023-02-19T02:11:39.932Z,1006.50
2023-02-19T02:12:39.915Z,1006.52
2023-02-19T02:13:39.890Z,1006.51
2023-02-19T02:14:39.900Z,1006.55
2023-02-19T02:15:39.890Z,1006.59
2023-02-19T02:16:39.859Z,1006.58
2023-02-19T02:17:39.841Z,1006.55
2023-02-19T02:18:39.842Z,1006.61
2023-02-19T02:19:39.831Z,1006.59
2023-02-19T02:20:39.825Z,1006.55
2023-02-19T02:21:39.840Z,1006.61
2023-02-19T02:22:39.802Z,1006.51
2023-02-19T02:23:39.795Z,1006.53
2023-02-19T02:24:39.763Z,1006.58
2023-02-19T02:25:51.766Z,1006.50
2023-02-19T02:26:51.767Z,1006.51
2023-02-19T02:27:39.738Z,1006.53
2023-02-19T02:28:39.708Z,1006.50
2023-02-19T02:29:39.749Z,1006.52
2023-02-19T02:30:39.714Z,1006.49
2023-02-19T02:31:40.343Z,1006.50
2023-02-19T02:32:39.696Z,1006.56
2023-02-19T02:33:39.722Z,1006.50
2023-02-19T02:34:39.670Z,1006.53
2023-02-19T02:35:39.645Z,1006.51
2023-02-19T02:36:39.643Z,1006.50
2023-02-19T02:37:39.653Z,1006.56
2023-02-19T02:38:39.622Z,1006.48
2023-02-19T02:39:39.628Z,1006.50
2023-02-19T02:40:39.635Z,1006.46
2023-02-19T02:41:39.607Z,1006.50
2023-02-19T02:42:39.579Z,1006.47
2023-02-19T02:43:39.574Z,1006.50
2023-02-19T02:44:39.556Z,1006.46
2023-02-19T02:45:39.673Z,1006.52
2023-02-19T02:46:39.514Z,1006.51
2023-02-19T02:47:39.540Z,1006.49
2023-02-19T02:48:39.635Z,1006.51
2023-02-19T02:49:39.513Z,1006.59
2023-02-19T02:50:39.472Z,1006.55
2023-02-19T02:51:39.484Z,1006.60
2023-02-19T02:52:39.469Z,1006.48
2023-02-19T02:53:39.476Z,1006.64
2023-02-19T02:54:39.511Z,1006.61
2023-02-19T02:55:39.463Z,1006.57
2023-02-19T02:56:39.472Z,1006.57
2023-02-19T02:57:39.417Z,1006.65
2023-02-19T02:58:39.393Z,1006.65
2023-02-19T02:59:39.409Z,1006.58
2023-02-19T03:00:39.374Z,1006.61
2023-02-19T03:01:39.366Z,1006.60
2023-02-19T03:02:50.635Z,1006.67
2023-02-19T03:03:49.452Z,1006.59
2023-02-19T03:04:39.325Z,1006.59
2023-02-19T03:05:39.348Z,1006.55
2023-02-19T03:06:39.323Z,1006.60
2023-02-19T03:07:39.329Z,1006.57
2023-02-19T03:08:39.300Z,1006.63
2023-02-19T03:09:39.295Z,1006.59
2023-02-19T03:10:39.310Z,1006.72
2023-02-19T03:11:39.276Z,1006.59
2023-02-19T03:12:46.756Z,1006.54
2023-02-19T03:13:39.258Z,1006.54
2023-02-19T03:14:39.253Z,1006.56
2023-02-19T03:15:39.249Z,1006.55
2023-02-19T03:16:41.119Z,1006.64
2023-02-19T03:17:39.222Z,1006.54
2023-02-19T03:18:39.193Z,1006.57
2023-02-19T03:19:39.181Z,1006.57
2023-02-19T03:20:39.146Z,1006.61
2023-02-19T03:21:39.158Z,1006.63
2023-02-19T03:22:39.145Z,1006.48
2023-02-19T03:23:39.157Z,1006.53
2023-02-19T03:24:39.119Z,1006.65
2023-02-19T03:25:39.106Z,1006.54
2023-02-19T03:26:39.111Z,1006.52
2023-02-19T03:27:39.111Z,1006.58
2023-02-19T03:28:39.071Z,1006.62
2023-02-19T03:29:39.076Z,1006.58
2023-02-19T03:30:39.066Z,1006.67
2023-02-19T03:31:39.133Z,1006.65
2023-02-19T03:32:39.021Z,1006.50
2023-02-19T03:33:39.514Z,1006.64
2023-02-19T03:34:39.016Z,1006.62
2023-02-19T03:35:39.014Z,1006.62
2023-02-19T03:36:38.988Z,1006.63
2023-02-19T03:37:38.999Z,1006.64
2023-02-19T03:38:38.980Z,1006.66
2023-02-19T03:39:38.963Z,1006.59
2023-02-19T03:40:38.940Z,1006.62
2023-02-19T03:41:38.923Z,1006.66
2023-02-19T03:42:38.904Z,1006.66
2023-02-19T03:43:39.010Z,1006.75
2023-02-19T03:44:38.903Z,1006.67
2023-02-19T03:45:38.925Z,1006.65
2023-02-19T03:46:38.893Z,1006.62
2023-02-19T03:47:38.856Z,1006.67
2023-02-19T03:48:38.876Z,1006.67
2023-02-19T03:49:38.873Z,1006.71
2023-02-19T03:50:38.839Z,1006.68
2023-02-19T03:51:38.814Z,1006.72
2023-02-19T03:52:38.798Z,1006.69
2023-02-19T03:53:38.809Z,1006.71
2023-02-19T03:54:38.785Z,1006.75
2023-02-19T03:55:38.795Z,1006.70
2023-02-19T03:56:38.776Z,1006.74
2023-02-19T03:57:38.766Z,1006.77
2023-02-19T03:58:38.775Z,1006.74
2023-02-19T03:59:38.743Z,1006.73
2023-02-19T04:00:38.747Z,1006.82
2023-02-19T04:01:38.717Z,1006.86
2023-02-19T04:02:38.727Z,1006.94
2023-02-19T04:03:38.694Z,1006.94
2023-02-19T04:04:38.775Z,1006.86
2023-02-19T04:05:38.696Z,1006.89
2023-02-19T04:06:38.686Z,1006.97
2023-02-19T04:07:38.652Z,1006.92
2023-02-19T04:08:38.657Z,1007.04
2023-02-19T04:09:38.618Z,1007.17
2023-02-19T04:10:38.634Z,1006.96
2023-02-19T04:11:38.605Z,1006.94
2023-02-19T04:12:38.620Z,1007.02
2023-02-19T04:13:38.577Z,1007.12
2023-02-19T04:14:38.608Z,1007.09
2023-02-19T04:15:38.573Z,1007.09
2023-02-19T04:16:38.632Z,1007.10
2023-02-19T04:17:38.558Z,1007.06
2023-02-19T04:18:38.569Z,1007.10
2023-02-19T04:19:38.528Z,1007.12
2023-02-19T04:20:38.531Z,1007.11
2023-02-19T04:21:38.515Z,1007.07
2023-02-19T04:22:38.502Z,1007.06
2023-02-19T04:23:38.492Z,1007.09
2023-02-19T04:24:38.511Z,1007.14
2023-02-19T04:25:38.485Z,1007.12
2023-02-19T04:26:39.423Z,1007.14
2023-02-19T04:27:38.442Z,1007.23
2023-02-19T04:28:38.454Z,1007.35
2023-02-19T04:29:39.387Z,1007.15
2023-02-19T04:30:38.524Z,1007.22
2023-02-19T04:31:38.495Z,1007.19
2023-02-19T04:32:38.392Z,1007.24
2023-02-19T04:33:38.382Z,1007.25
2023-02-19T04:34:38.389Z,1007.28
2023-02-19T04:35:38.427Z,1007.29
2023-02-19T04:36:38.387Z,1007.29
2023-02-19T04:37:38.345Z,1007.22
2023-02-19T04:38:38.341Z,1007.43
2023-02-19T04:39:38.303Z,1007.34
2023-02-19T04:40:38.311Z,1007.30
2023-02-19T04:41:38.277Z,1007.34
2023-02-19T04:42:38.273Z,1007.30
2023-02-19T04:43:38.275Z,1007.20
2023-02-19T04:44:38.274Z,1007.31
2023-02-19T04:45:38.252Z,1007.34
2023-02-19T04:46:38.235Z,1007.36
2023-02-19T04:47:38.232Z,1007.50
2023-02-19T04:48:38.225Z,1007.26
2023-02-19T04:49:38.208Z,1007.44
2023-02-19T04:50:38.207Z,1007.45
2023-02-19T04:51:38.185Z,1007.44
2023-02-19T04:52:38.179Z,1007.42
2023-02-19T04:53:38.175Z,1007.58
2023-02-19T04:54:38.174Z,1007.47
2023-02-19T04:55:38.134Z,1007.56
2023-02-19T04:56:38.142Z,1007.51
2023-02-19T04:57:38.146Z,1007.74
2023-02-19T04:58:38.119Z,1007.55
2023-02-19T04:59:38.094Z,1007.55
2023-02-19T05:00:38.096Z,1007.60
2023-02-19T05:01:38.106Z,1007.55
2023-02-19T05:02:38.075Z,1007.73
2023-02-19T05:03:38.050Z,1007.69
2023-02-19T05:04:38.077Z,1007.60
2023-02-19T05:05:38.034Z,1007.65
2023-02-19T05:06:38.110Z,1007.67
2023-02-19T05:07:38.017Z,1007.71
2023-02-19T05:08:38.044Z,1007.79
2023-02-19T05:09:37.982Z,1007.55
2023-02-19T05:10:37.988Z,1007.69
2023-02-19T05:11:37.960Z,1007.68
2023-02-19T05:12:37.945Z,1007.67
2023-02-19T05:13:38.030Z,1007.59
2023-02-19T05:14:37.942Z,1007.77
2023-02-19T05:15:37.956Z,1007.69
2023-02-19T05:16:37.934Z,1007.73
2023-02-19T05:17:37.902Z,1007.72
2023-02-19T05:18:37.904Z,1007.77
2023-02-19T05:19:37.889Z,1007.83
2023-02-19T05:20:37.881Z,1007.79
2023-02-19T05:21:38.801Z,1007.87
2023-02-19T05:22:37.880Z,1007.89
2023-02-19T05:23:37.855Z,1007.86
2023-02-19T05:24:41.897Z,1007.83
2023-02-19T05:25:37.814Z,1007.84
2023-02-19T05:26:37.936Z,1007.88
2023-02-19T05:27:37.801Z,1007.87
2023-02-19T05:28:37.783Z,1007.84
2023-02-19T05:29:37.802Z,1007.96
2023-02-19T05:30:37.786Z,1007.96
2023-02-19T05:31:37.799Z,1008.00
2023-02-19T05:32:37.760Z,1008.02
2023-02-19T05:33:37.727Z,1008.14
2023-02-19T05:34:37.730Z,1008.32
2023-02-19T05:35:37.696Z,1008.37
2023-02-19T05:36:37.705Z,1008.45
2023-02-19T05:37:37.939Z,1008.39
2023-02-19T05:38:37.702Z,1008.43
2023-02-19T05:39:37.680Z,1008.53
2023-02-19T05:40:37.655Z,1008.55
2023-02-19T05:41:37.637Z,1008.54
2023-02-19T05:42:37.623Z,1008.58
2023-02-19T05:43:37.638Z,1008.54
2023-02-19T05:44:37.622Z,1008.61
2023-02-19T05:45:37.603Z,1008.63
2023-02-19T05:46:37.657Z,1008.64
2023-02-19T05:47:37.572Z,1008.66
2023-02-19T05:48:37.572Z,1008.71
2023-02-19T05:49:37.574Z,1008.71
2023-02-19T05:50:39.701Z,1008.73
2023-02-19T05:51:37.553Z,1008.73
2023-02-19T05:52:37.534Z,1008.84
2023-02-19T05:53:37.501Z,1008.87
2023-02-19T05:54:37.533Z,1008.92
2023-02-19T05:55:37.485Z,1008.90
2023-02-19T05:56:37.511Z,1008.99
2023-02-19T05:57:37.475Z,1008.99
2023-02-19T05:58:37.481Z,1009.05
2023-02-19T05:59:37.454Z,1009.05
2023-02-19T06:00:37.492Z,1009.10
2023-02-19T06:01:37.442Z,1009.15
2023-02-19T06:02:37.451Z,1009.17
2023-02-19T06:03:37.448Z,1009.20
2023-02-19T06:04:37.402Z,1009.25
2023-02-19T06:05:37.402Z,1009.28
2023-02-19T06:06:37.376Z,1009.33
2023-02-19T06:07:37.358Z,1009.33
2023-02-19T06:08:37.434Z,1009.34
2023-02-19T06:09:37.356Z,1009.36
2023-02-19T06:10:37.350Z,1009.36
2023-02-19T06:11:37.323Z,1009.37
2023-02-19T06:12:37.342Z,1009.41
2023-02-19T06:13:37.310Z,1009.44
2023-02-19T06:14:37.294Z,1009.46
2023-02-19T06:15:37.297Z,1009.47
2023-02-19T06:16:37.282Z,1009.53
2023-02-19T06:17:37.252Z,1009.56
2023-02-19T06:18:37.255Z,1009.59
2023-02-19T06:19:37.234Z,1009.64
2023-02-19T06:20:37.249Z,1009.70
2023-02-19T06:21:37.203Z,1009.64
2023-02-19T06:22:37.232Z,1009.72
2023-02-19T06:23:37.195Z,1009.76
2023-02-19T06:24:37.196Z,1009.74
2023-02-19T06:25:37.227Z,1009.82
2023-02-19T06:26:37.173Z,1009.81
2023-02-19T06:27:37.140Z,1009.83
2023-02-19T06:28:37.153Z,1009.91
2023-02-19T06:29:37.141Z,1009.89
2023-02-19T06:30:37.120Z,1009.93
2023-02-19T06:31:37.166Z,1009.93
2023-02-19T06:32:37.132Z,1009.94
2023-02-19T06:33:37.108Z,1009.94
2023-02-19T06:34:37.107Z,1009.99
2023-02-19T06:35:37.063Z,1010.04
2023-02-19T06:36:37.083Z,1010.05
2023-02-19T06:37:37.060Z,1010.05
2023-02-19T06:38:37.066Z,1010.01
2023-02-19T06:39:37.119Z,1010.06
2023-02-19T06:40:37.022Z,1010.10
2023-02-19T06:41:37.020Z,1010.12
2023-02-19T06:42:37.028Z,1010.18
2023-02-19T06:43:37.004Z,1010.27
2023-02-19T06:44:36.981Z,1010.28
2023-02-19T06:45:36.964Z,1010.31
2023-02-19T06:46:37.079Z,1010.30
2023-02-19T06:47:36.948Z,1010.31
2023-02-19T06:48:36.963Z,1010.32
2023-02-19T06:49:36.922Z,1010.38
2023-02-19T06:50:36.933Z,1010.40
2023-02-19T06:51:36.908Z,1010.45
2023-02-19T06:52:36.926Z,1010.49
2023-02-19T06:53:36.930Z,1010.47
2023-02-19T06:54:36.885Z,1010.51
2023-02-19T06:55:37.825Z,1010.56
2023-02-19T06:56:36.866Z,1010.53
2023-02-19T06:57:36.889Z,1010.61
2023-02-19T06:58:36.863Z,1010.65
2023-02-19T06:59:36.870Z,1010.71
2023-02-19T07:00:36.858Z,1010.69
2023-02-19T07:01:36.817Z,1010.70
2023-02-19T07:02:37.000Z,1010.74
2023-02-19T07:03:36.772Z,1010.77
2023-02-19T07:04:36.772Z,1010.84
2023-02-19T07:05:36.763Z,1010.86
2023-02-19T07:06:36.840Z,1010.90
2023-02-19T07:07:36.742Z,1010.87
2023-02-19T07:08:36.778Z,1010.87
2023-02-19T07:09:36.726Z,1010.85
2023-02-19T07:10:36.779Z,1010.93
2023-02-19T07:11:36.690Z,1011.00
2023-02-19T07:12:36.680Z,1011.09
2023-02-19T07:13:36.667Z,1011.21
2023-02-19T07:14:36.674Z,1011.18
2023-02-19T07:15:36.653Z,1011.19
2023-02-19T07:16:36.669Z,1011.21
2023-02-19T07:17:36.624Z,1011.22
2023-02-19T07:18:36.637Z,1011.25
2023-02-19T07:19:36.609Z,1011.22
2023-02-19T07:20:36.613Z,1011.29
2023-02-19T07:21:36.573Z,1011.27
2023-02-19T07:22:36.601Z,1011.26
2023-02-19T07:23:36.563Z,1011.30
2023-02-19T07:24:36.558Z,1011.35
2023-02-19T07:25:36.681Z,1011.41
2023-02-19T07:26:36.528Z,1011.40
2023-02-19T07:27:36.532Z,1011.43
2023-02-19T07:28:36.523Z,1011.48
2023-02-19T07:29:36.538Z,1011.49
2023-02-19T07:30:36.531Z,1011.51
2023-02-19T07:31:36.547Z,1011.51
2023-02-19T07:32:36.490Z,1011.51
2023-02-19T07:33:36.526Z,1011.52
2023-02-19T07:34:36.451Z,1011.53
2023-02-19T07:35:36.431Z,1011.58
2023-02-19T07:36:36.438Z,1011.62
2023-02-19T07:37:36.409Z,1011.64
2023-02-19T07:38:36.414Z,1011.66
2023-02-19T07:39:36.539Z,1011.70
2023-02-19T07:40:36.395Z,1011.71
2023-02-19T07:41:36.614Z,1011.77
2023-02-19T07:42:36.379Z,1011.81
2023-02-19T07:43:36.381Z,1011.88
2023-02-19T07:44:36.389Z,1011.95
2023-02-19T07:45:36.338Z,1011.94
2023-02-19T07:46:36.390Z,1011.95
2023-02-19T07:47:36.352Z,1011.93
2023-02-19T07:48:36.351Z,1011.96
2023-02-19T07:49:36.293Z,1012.01
2023-02-19T07:50:36.303Z,1011.97
2023-02-19T07:51:36.294Z,1012.00
2023-02-19T07:52:36.296Z,1012.04
2023-02-19T07:53:36.289Z,1012.07
2023-02-19T07:54:36.368Z,1012.11
2023-02-19T07:55:36.249Z,1012.12
2023-02-19T07:56:36.218Z,1012.14
2023-02-19T07:57:36.222Z,1012.10
2023-02-19T07:58:36.216Z,1012.12
2023-02-19T07:59:36.185Z,1012.11
2023-02-19T08:00:36.180Z,1012.12
2023-02-19T08:01:36.218Z,1012.18
2023-02-19T08:02:36.198Z,1012.15
2023-02-19T08:03:36.199Z,1012.15
2023-02-19T08:04:36.252Z,1012.17
2023-02-19T08:05:36.123Z,1012.17
2023-02-19T08:06:36.135Z,1012.16
2023-02-19T08:07:36.109Z,1012.22
2023-02-19T08:08:36.101Z,1012.19
2023-02-19T08:09:36.097Z,1012.20
2023-02-19T08:10:36.052Z,1012.25
2023-02-19T08:11:36.045Z,1012.25
2023-02-19T08:12:36.254Z,1012.27
2023-02-19T08:13:36.078Z,1012.24
2023-02-19T08:14:36.033Z,1012.28
2023-02-19T08:15:36.033Z,1012.31
2023-02-19T08:16:42.891Z,1012.34
2023-02-19T08:17:37.012Z,1012.37
2023-02-19T08:18:35.988Z,1012.40
2023-02-19T08:19:36.009Z,1012.42
2023-02-19T08:20:36.008Z,1012.44
2023-02-19T08:21:35.962Z,1012.46
2023-02-19T08:22:35.933Z,1012.47
2023-02-19T08:23:35.952Z,1012.46
2023-02-19T08:24:35.907Z,1012.50
2023-02-19T08:25:35.919Z,1012.49
2023-02-19T08:26:35.902Z,1012.55
2023-02-19T08:27:35.904Z,1012.58
2023-02-19T08:28:35.867Z,1012.61
2023-02-19T08:29:35.891Z,1012.64
2023-02-19T08:30:35.905Z,1012.66
2023-02-19T08:31:36.026Z,1012.73
2023-02-19T08:32:35.836Z,1012.73
2023-02-19T08:33:35.861Z,1012.80
2023-02-19T08:34:35.810Z,1012.77
2023-02-19T08:35:35.826Z,1012.79
2023-02-19T08:36:35.798Z,1012.80
2023-02-19T08:37:35.797Z,1012.78
2023-02-19T08:38:35.814Z,1012.75
2023-02-19T08:39:35.793Z,1012.85
2023-02-19T08:40:35.741Z,1012.82
2023-02-19T08:41:35.752Z,1012.83
2023-02-19T08:42:35.722Z,1012.85
2023-02-19T08:43:35.818Z,1012.83
2023-02-19T08:44:35.717Z,1012.83
2023-02-19T08:45:35.697Z,1012.82
2023-02-19T08:46:35.683Z,1012.85
2023-02-19T08:47:35.678Z,1012.83
2023-02-19T08:48:35.681Z,1012.74
2023-02-19T08:49:35.647Z,1012.83
2023-02-19T08:50:35.639Z,1012.85
2023-02-19T08:51:35.655Z,1012.86
2023-02-19T08:52:35.620Z,1012.80
2023-02-19T08:53:35.626Z,1012.77
2023-02-19T08:54:37.216Z,1012.79
2023-02-19T08:55:35.599Z,1012.74
2023-02-19T08:56:35.577Z,1012.77
2023-02-19T08:57:35.583Z,1012.79
2023-02-19T08:58:35.551Z,1012.83
2023-02-19T08:59:35.544Z,1012.84
2023-02-19T09:00:35.597Z,1012.86
2023-02-19T09:01:35.578Z,1012.93
2023-02-19T09:02:35.529Z,1012.92
2023-02-19T09:03:35.530Z,1013.03
2023-02-19T09:04:35.504Z,1013.01
2023-02-19T09:05:35.498Z,1013.00
2023-02-19T09:06:35.554Z,1012.97
2023-02-19T09:07:35.501Z,1013.03
2023-02-19T09:08:35.453Z,1013.01
2023-02-19T09:09:35.447Z,1013.02
2023-02-19T09:10:35.425Z,1013.02
2023-02-19T09:11:35.447Z,1013.08
2023-02-19T09:13:35.630Z,1013.13
2023-02-19T09:14:33.838Z,1013.15
2023-02-19T09:15:35.597Z,1013.20
2023-02-19T09:16:33.771Z,1013.28
2023-02-19T09:17:33.761Z,1013.35
2023-02-19T09:18:33.770Z,1013.34
2023-02-19T09:19:33.734Z,1013.36
2023-02-19T09:20:33.731Z,1013.37
2023-02-19T09:21:33.732Z,1013.36
2023-02-19T09:22:33.718Z,1013.37
2023-02-19T09:23:33.692Z,1013.39
2023-02-19T09:24:33.681Z,1013.44
2023-02-19T09:25:33.677Z,1013.42
2023-02-19T09:26:33.676Z,1013.44
2023-02-19T09:27:34.658Z,1013.47
2023-02-19T09:28:33.655Z,1013.44
2023-02-19T09:29:33.624Z,1013.42
2023-02-19T09:30:33.687Z,1013.42
2023-02-19T09:31:33.723Z,1013.40
2023-02-19T09:32:33.636Z,1013.36
2023-02-19T09:33:33.590Z,1013.38
2023-02-19T09:34:33.606Z,1013.43
2023-02-19T09:35:33.574Z,1013.43
2023-02-19T09:36:33.579Z,1013.43
2023-02-19T09:37:34.237Z,1013.43
2023-02-19T09:38:33.556Z,1013.45
2023-02-19T09:39:33.539Z,1013.51
2023-02-19T09:40:33.528Z,1013.51
2023-02-19T09:41:33.496Z,1013.55
2023-02-19T09:42:33.533Z,1013.57
2023-02-19T09:43:33.503Z,1013.65
2023-02-19T09:44:33.517Z,1013.67
2023-02-19T09:45:33.585Z,1013.65
2023-02-19T09:46:33.511Z,1013.65
2023-02-19T09:47:33.460Z,1013.65
2023-02-19T09:48:33.446Z,1013.64
2023-02-19T09:49:33.430Z,1013.67
2023-02-19T09:50:33.423Z,1013.74
2023-02-19T09:51:33.405Z,1013.77
2023-02-19T09:52:33.431Z,1013.82
2023-02-19T09:53:33.395Z,1013.84
2023-02-19T09:54:33.408Z,1013.86
2023-02-19T09:55:33.357Z,1013.89
2023-02-19T09:56:33.352Z,1013.86
2023-02-19T09:57:33.423Z,1013.94
2023-02-19T09:58:33.370Z,1013.96
2023-02-19T09:59:34.169Z,1013.97
2023-02-19T10:00:33.332Z,1014.08
2023-02-19T10:01:33.292Z,1014.08
2023-02-19T10:02:33.310Z,1014.06
2023-02-19T10:03:33.290Z,1014.11
2023-02-19T10:04:33.315Z,1014.11
2023-02-19T10:05:33.258Z,1014.15
2023-02-19T10:06:33.241Z,1014.13
2023-02-19T10:07:33.231Z,1014.17
2023-02-19T10:08:33.227Z,1014.20
2023-02-19T10:09:33.210Z,1014.22
2023-02-19T10:10:33.250Z,1014.20
2023-02-19T10:11:33.182Z,1014.18
2023-02-19T10:12:33.174Z,1014.23
2023-02-19T10:13:33.169Z,1014.28
2023-02-19T10:14:33.162Z,1014.35
2023-02-19T10:15:33.234Z,1014.43
2023-02-19T10:16:33.187Z,1014.48
2023-02-19T10:17:33.112Z,1014.51
2023-02-19T10:18:33.142Z,1014.52
2023-02-19T10:19:33.086Z,1014.43
2023-02-19T10:20:33.105Z,1014.40
2023-02-19T10:21:33.069Z,1014.36
2023-02-19T10:22:33.076Z,1014.39
2023-02-19T10:23:33.055Z,1014.39
2023-02-19T10:24:33.055Z,1014.44
2023-02-19T10:25:33.050Z,1014.39
2023-02-19T10:26:33.033Z,1014.44
2023-02-19T10:27:33.013Z,1014.43
2023-02-19T10:28:33.022Z,1014.43
2023-02-19T10:29:32.986Z,1014.45
2023-02-19T10:30:33.378Z,1014.43
2023-02-19T10:31:33.057Z,1014.41
2023-02-19T10:32:32.961Z,1014.42
2023-02-19T10:33:32.947Z,1014.48
2023-02-19T10:34:32.943Z,1014.51
2023-02-19T10:35:32.943Z,1014.56
2023-02-19T10:36:32.954Z,1014.58
2023-02-19T10:37:32.907Z,1014.52
2023-02-19T10:38:32.907Z,1014.52
2023-02-19T10:39:32.928Z,1014.50
2023-02-19T10:40:32.886Z,1014.59
2023-02-19T10:41:32.876Z,1014.63
2023-02-19T10:42:32.863Z,1014.62
2023-02-19T10:43:32.847Z,1014.63
2023-02-19T10:44:32.839Z,1014.58
2023-02-19T10:45:32.814Z,1014.58
2023-02-19T10:46:32.853Z,1014.57
2023-02-19T10:47:32.972Z,1014.50
2023-02-19T10:48:32.816Z,1014.55
2023-02-19T10:49:32.929Z,1014.49
2023-02-19T10:50:32.768Z,1014.38
2023-02-19T10:51:32.758Z,1014.40
2023-02-19T10:52:32.762Z,1014.41
2023-02-19T10:53:32.729Z,1014.34
2023-02-19T10:54:32.771Z,1014.35
2023-02-19T10:55:32.797Z,1014.35
2023-02-19T10:56:32.728Z,1014.35
2023-02-19T10:57:32.738Z,1014.40
2023-02-19T10:58:32.697Z,1014.44
2023-02-19T10:59:32.668Z,1014.47
2023-02-19T11:00:32.668Z,1014.50
2023-02-19T11:01:32.682Z,1014.53
2023-02-19T11:02:32.661Z,1014.54
2023-02-19T11:03:32.631Z,1014.61
2023-02-19T11:04:32.663Z,1014.61
2023-02-19T11:05:32.593Z,1014.67
2023-02-19T11:06:34.930Z,1014.72
2023-02-19T11:07:32.565Z,1014.70
2023-02-19T11:08:32.605Z,1014.77
2023-02-19T11:09:32.587Z,1014.75
2023-02-19T11:10:32.566Z,1014.81
2023-02-19T11:11:32.536Z,1014.85
2023-02-19T11:12:32.546Z,1014.85
2023-02-19T11:13:32.604Z,1014.85
2023-02-19T11:14:32.552Z,1014.86
2023-02-19T11:15:32.500Z,1014.91
2023-02-19T11:16:32.496Z,1014.91
2023-02-19T11:17:32.687Z,1014.94
2023-02-19T11:18:32.548Z,1014.96
2023-02-19T11:19:32.614Z,1014.94
2023-02-19T11:20:32.700Z,1014.89
2023-02-19T11:21:32.465Z,1014.93
2023-02-19T11:22:32.461Z,1014.96
2023-02-19T11:23:32.433Z,1014.90
2023-02-19T11:24:32.416Z,1014.88
2023-02-19T11:25:32.408Z,1014.92
2023-02-19T11:26:32.390Z,1014.89
2023-02-19T11:27:32.369Z,1014.87
2023-02-19T11:28:32.353Z,1014.80
2023-02-19T11:29:32.340Z,1014.79
2023-02-19T11:30:35.266Z,1014.78
2023-02-19T11:31:32.411Z,1014.79
2023-02-19T11:32:32.319Z,1014.79
2023-02-19T11:33:32.309Z,1014.81
2023-02-19T11:34:32.306Z,1014.83
2023-02-19T11:35:32.287Z,1014.85
2023-02-19T11:36:32.300Z,1014.86
2023-02-19T11:37:32.268Z,1014.89
2023-02-19T11:38:32.273Z,1014.92
2023-02-19T11:39:32.237Z,1014.92
2023-02-19T11:40:32.243Z,1014.88
2023-02-19T11:41:32.212Z,1014.90
2023-02-19T11:42:32.216Z,1014.90
2023-02-19T11:43:32.215Z,1014.83
2023-02-19T11:44:32.197Z,1014.78
2023-02-19T11:45:32.162Z,1014.85
2023-02-19T11:46:32.219Z,1014.76
2023-02-19T11:47:32.172Z,1014.80
2023-02-19T11:48:32.148Z,1014.80
2023-02-19T11:49:32.367Z,1014.73
2023-02-19T11:50:32.134Z,1014.76
2023-02-19T11:51:32.129Z,1014.76
2023-02-19T11:52:32.127Z,1014.64
2023-02-19T11:53:32.117Z,1014.64
2023-02-19T11:54:32.100Z,1014.68
2023-02-19T11:55:32.080Z,1014.70
2023-02-19T11:56:32.074Z,1014.72
2023-02-19T11:57:32.052Z,1014.66
2023-02-19T11:58:32.048Z,1014.67
2023-02-19T11:59:32.040Z,1014.72
2023-02-19T12:00:32.043Z,1014.71
2023-02-19T12:01:32.004Z,1014.74
2023-02-19T12:02:32.023Z,1014.73
2023-02-19T12:03:31.995Z,1014.74
2023-02-19T12:04:31.989Z,1014.72
2023-02-19T12:05:31.963Z,1014.75
2023-02-19T12:06:31.972Z,1014.74